San Juan Community, Texas
Current Conditions -  °F | °C
As of 5:53 PM on Friday 28 Nov 2014 (Local Time) from KMFE Reporting Station
Clear Clear  
Wind Chill: 69°   Ceiling: Unl
Heat Index: 69°   Visibility: 10mi
Dew Point: 55°   Wind: 14mph
Humidity: 61%   Direction: 140°SE
Pressure: 30.13"   Gusts: NA
Location:  26.2938°N, 98.1548°W
Report Text: KMFE 282353Z 14012KT 10SM CLR 21/13 A3013 RMK AO2 SLP203 T02060128 10250 20206 55006
Loading
Personal Weather Stations






























Interactive Weather Map New forecast layout! Learn more

10-Day Weather Forecast

Advertisements
Track Severe Weather on mobile